sensor_id;sensor_type;location;lat;lon;timestamp;temperature;humidity
22288;DHT22;11312;51.464;6.968;2022-07-04T00:01:21;16.50;99.90
22288;DHT22;11312;51.464;6.968;2022-07-04T00:03:46;16.40;99.90
22288;DHT22;11312;51.464;6.968;2022-07-04T00:06:12;16.50;99.90
22288;DHT22;11312;51.464;6.968;2022-07-04T00:08:37;16.40;99.90
22288;DHT22;11312;51.464;6.968;2022-07-04T00:11:03;16.40;99.90
22288;DHT22;11312;51.464;6.968;2022-07-04T00:13:29;16.30;99.90
22288;DHT22;11312;51.464;6.968;2022-07-04T00:15:55;16.20;99.90
22288;DHT22;11312;51.464;6.968;2022-07-04T00:18:21;16.30;99.90
22288;DHT22;11312;51.464;6.968;2022-07-04T00:20:46;16.30;99.90
22288;DHT22;11312;51.464;6.968;2022-07-04T00:23:12;16.20;99.90
22288;DHT22;11312;51.464;6.968;2022-07-04T00:25:37;16.10;99.90
22288;DHT22;11312;51.464;6.968;2022-07-04T00:28:03;16.10;1.00
22288;DHT22;11312;51.464;6.968;2022-07-04T00:30:29;16.10;99.90
22288;DHT22;11312;51.464;6.968;2022-07-04T00:32:55;16.00;1.00
22288;DHT22;11312;51.464;6.968;2022-07-04T00:35:20;16.00;1.00
22288;DHT22;11312;51.464;6.968;2022-07-04T00:37:46;16.00;1.00
22288;DHT22;11312;51.464;6.968;2022-07-04T00:40:12;16.00;99.90
22288;DHT22;11312;51.464;6.968;2022-07-04T00:42:37;16.00;99.90
22288;DHT22;11312;51.464;6.968;2022-07-04T00:45:03;16.00;42.30
22288;DHT22;11312;51.464;6.968;2022-07-04T00:47:29;15.90;99.90
22288;DHT22;11312;51.464;6.968;2022-07-04T00:49:54;15.80;99.90
22288;DHT22;11312;51.464;6.968;2022-07-04T00:52:20;15.80;99.90
22288;DHT22;11312;51.464;6.968;2022-07-04T00:54:46;15.90;99.90
22288;DHT22;11312;51.464;6.968;2022-07-04T00:57:12;15.90;99.90
22288;DHT22;11312;51.464;6.968;2022-07-04T00:59:38;15.80;99.90
22288;DHT22;11312;51.464;6.968;2022-07-04T01:02:04;15.80;99.90
22288;DHT22;11312;51.464;6.968;2022-07-04T01:04:29;15.80;99.90
22288;DHT22;11312;51.464;6.968;2022-07-04T01:06:55;15.80;99.90
22288;DHT22;11312;51.464;6.968;2022-07-04T01:09:21;15.80;99.90
22288;DHT22;11312;51.464;6.968;2022-07-04T01:11:49;15.70;99.90
22288;DHT22;11312;51.464;6.968;2022-07-04T01:14:15;15.70;99.90
22288;DHT22;11312;51.464;6.968;2022-07-04T01:16:41;15.70;99.90
22288;DHT22;11312;51.464;6.968;2022-07-04T01:19:06;15.70;99.90
22288;DHT22;11312;51.464;6.968;2022-07-04T01:21:32;15.70;99.90
22288;DHT22;11312;51.464;6.968;2022-07-04T01:23:58;15.60;99.90
22288;DHT22;11312;51.464;6.968;2022-07-04T01:26:24;15.50;99.90
22288;DHT22;11312;51.464;6.968;2022-07-04T01:28:50;15.60;99.90
22288;DHT22;11312;51.464;6.968;2022-07-04T01:31:16;15.60;99.90
22288;DHT22;11312;51.464;6.968;2022-07-04T01:33:41;15.60;99.90
22288;DHT22;11312;51.464;6.968;2022-07-04T01:36:07;15.60;99.90
22288;DHT22;11312;51.464;6.968;2022-07-04T01:38:33;15.50;99.90
22288;DHT22;11312;51.464;6.968;2022-07-04T01:40:58;15.50;99.90
22288;DHT22;11312;51.464;6.968;2022-07-04T01:43:24;15.50;99.90
22288;DHT22;11312;51.464;6.968;2022-07-04T01:45:50;15.50;99.90
22288;DHT22;11312;51.464;6.968;2022-07-04T01:48:15;15.40;99.90
22288;DHT22;11312;51.464;6.968;2022-07-04T01:50:41;15.40;99.90
22288;DHT22;11312;51.464;6.968;2022-07-04T01:53:07;15.40;99.90
22288;DHT22;11312;51.464;6.968;2022-07-04T01:55:33;15.40;99.90
22288;DHT22;11312;51.464;6.968;2022-07-04T01:57:59;15.40;99.90
22288;DHT22;11312;51.464;6.968;2022-07-04T02:00:26;15.30;99.90
22288;DHT22;11312;51.464;6.968;2022-07-04T02:03:10;15.30;99.90
22288;DHT22;11312;51.464;6.968;2022-07-04T02:05:36;15.30;99.90
22288;DHT22;11312;51.464;6.968;2022-07-04T02:08:05;15.20;99.90
22288;DHT22;11312;51.464;6.968;2022-07-04T02:10:30;15.30;99.90
22288;DHT22;11312;51.464;6.968;2022-07-04T02:12:56;15.20;99.90
22288;DHT22;11312;51.464;6.968;2022-07-04T02:15:39;15.20;99.90
22288;DHT22;11312;51.464;6.968;2022-07-04T02:18:08;15.10;99.90
22288;DHT22;11312;51.464;6.968;2022-07-04T02:20:34;15.10;99.90
22288;DHT22;11312;51.464;6.968;2022-07-04T02:23:01;15.10;99.90
22288;DHT22;11312;51.464;6.968;2022-07-04T02:25:26;15.10;99.90
22288;DHT22;11312;51.464;6.968;2022-07-04T02:27:52;15.10;99.90
22288;DHT22;11312;51.464;6.968;2022-07-04T02:30:18;15.00;99.90
22288;DHT22;11312;51.464;6.968;2022-07-04T02:32:44;15.00;99.90
22288;DHT22;11312;51.464;6.968;2022-07-04T02:35:10;15.00;99.90
22288;DHT22;11312;51.464;6.968;2022-07-04T02:37:36;14.90;99.90
22288;DHT22;11312;51.464;6.968;2022-07-04T02:40:03;14.90;99.90
22288;DHT22;11312;51.464;6.968;2022-07-04T02:42:33;14.90;99.90
22288;DHT22;11312;51.464;6.968;2022-07-04T02:44:59;14.90;99.90
22288;DHT22;11312;51.464;6.968;2022-07-04T02:47:26;14.90;99.90
22288;DHT22;11312;51.464;6.968;2022-07-04T02:49:51;14.90;99.90
22288;DHT22;11312;51.464;6.968;2022-07-04T02:52:17;14.90;99.90
22288;DHT22;11312;51.464;6.968;2022-07-04T02:54:42;14.90;99.90
22288;DHT22;11312;51.464;6.968;2022-07-04T02:57:10;14.80;99.90
22288;DHT22;11312;51.464;6.968;2022-07-04T02:59:36;14.80;99.90
22288;DHT22;11312;51.464;6.968;2022-07-04T03:02:01;14.90;99.90
22288;DHT22;11312;51.464;6.968;2022-07-04T03:04:27;14.80;99.90
22288;DHT22;11312;51.464;6.968;2022-07-04T03:06:52;14.80;99.90
22288;DHT22;11312;51.464;6.968;2022-07-04T03:09:18;14.80;99.90
22288;DHT22;11312;51.464;6.968;2022-07-04T03:11:44;14.80;99.90
22288;DHT22;11312;51.464;6.968;2022-07-04T03:14:10;14.70;99.90
22288;DHT22;11312;51.464;6.968;2022-07-04T03:16:36;14.70;99.90
22288;DHT22;11312;51.464;6.968;2022-07-04T03:19:02;14.70;99.90
22288;DHT22;11312;51.464;6.968;2022-07-04T03:21:28;14.70;99.90
22288;DHT22;11312;51.464;6.968;2022-07-04T03:23:54;14.70;99.90
22288;DHT22;11312;51.464;6.968;2022-07-04T03:26:27;14.60;99.90
22288;DHT22;11312;51.464;6.968;2022-07-04T03:28:53;14.60;99.90
22288;DHT22;11312;51.464;6.968;2022-07-04T03:31:19;14.60;99.90
22288;DHT22;11312;51.464;6.968;2022-07-04T03:33:44;14.50;99.90
22288;DHT22;11312;51.464;6.968;2022-07-04T03:36:10;14.60;99.90
22288;DHT22;11312;51.464;6.968;2022-07-04T03:38:36;14.60;99.90
22288;DHT22;11312;51.464;6.968;2022-07-04T03:41:02;14.60;99.90
22288;DHT22;11312;51.464;6.968;2022-07-04T03:43:27;14.50;99.90
22288;DHT22;11312;51.464;6.968;2022-07-04T03:45:53;14.50;99.90
22288;DHT22;11312;51.464;6.968;2022-07-04T03:48:19;14.50;99.90
22288;DHT22;11312;51.464;6.968;2022-07-04T03:50:45;14.20;99.90
22288;DHT22;11312;51.464;6.968;2022-07-04T03:53:11;14.40;99.90
22288;DHT22;11312;51.464;6.968;2022-07-04T03:55:38;14.40;99.90
22288;DHT22;11312;51.464;6.968;2022-07-04T03:58:04;14.40;99.90
22288;DHT22;11312;51.464;6.968;2022-07-04T04:00:31;14.40;99.90
22288;DHT22;11312;51.464;6.968;2022-07-04T04:02:57;14.40;99.90
22288;DHT22;11312;51.464;6.968;2022-07-04T04:05:23;14.40;99.90
22288;DHT22;11312;51.464;6.968;2022-07-04T04:07:55;14.40;99.90
22288;DHT22;11312;51.464;6.968;2022-07-04T04:10:21;14.40;99.90
22288;DHT22;11312;51.464;6.968;2022-07-04T04:12:47;14.40;99.90
22288;DHT22;11312;51.464;6.968;2022-07-04T04:15:13;14.40;99.90
22288;DHT22;11312;51.464;6.968;2022-07-04T04:17:38;14.40;99.90
22288;DHT22;11312;51.464;6.968;2022-07-04T04:20:05;14.40;99.90
22288;DHT22;11312;51.464;6.968;2022-07-04T04:22:30;14.50;99.90
22288;DHT22;11312;51.464;6.968;2022-07-04T04:24:57;14.40;99.90
22288;DHT22;11312;51.464;6.968;2022-07-04T04:27:23;14.40;99.90
22288;DHT22;11312;51.464;6.968;2022-07-04T04:29:48;14.40;99.90
22288;DHT22;11312;51.464;6.968;2022-07-04T04:32:14;14.50;99.90
22288;DHT22;11312;51.464;6.968;2022-07-04T04:34:40;14.50;99.90
22288;DHT22;11312;51.464;6.968;2022-07-04T04:37:06;14.40;99.90
22288;DHT22;11312;51.464;6.968;2022-07-04T04:39:31;14.40;99.90
22288;DHT22;11312;51.464;6.968;2022-07-04T04:41:57;14.60;99.90
22288;DHT22;11312;51.464;6.968;2022-07-04T04:44:23;14.50;99.90
22288;DHT22;11312;51.464;6.968;2022-07-04T04:46:48;14.70;99.90
22288;DHT22;11312;51.464;6.968;2022-07-04T04:49:14;14.50;99.90
22288;DHT22;11312;51.464;6.968;2022-07-04T04:51:40;14.70;99.90
22288;DHT22;11312;51.464;6.968;2022-07-04T04:54:05;14.80;99.90
22288;DHT22;11312;51.464;6.968;2022-07-04T04:56:31;14.70;99.90
22288;DHT22;11312;51.464;6.968;2022-07-04T04:58:57;14.80;99.90
22288;DHT22;11312;51.464;6.968;2022-07-04T05:01:22;15.00;99.90
22288;DHT22;11312;51.464;6.968;2022-07-04T05:03:48;15.00;99.90
22288;DHT22;11312;51.464;6.968;2022-07-04T05:06:13;15.10;99.90
22288;DHT22;11312;51.464;6.968;2022-07-04T05:08:39;15.10;99.90
22288;DHT22;11312;51.464;6.968;2022-07-04T05:11:05;15.10;99.90
22288;DHT22;11312;51.464;6.968;2022-07-04T05:13:31;15.30;99.90
22288;DHT22;11312;51.464;6.968;2022-07-04T05:15:56;15.30;99.90
22288;DHT22;11312;51.464;6.968;2022-07-04T05:18:22;15.30;99.90
22288;DHT22;11312;51.464;6.968;2022-07-04T05:20:48;15.40;99.90
22288;DHT22;11312;51.464;6.968;2022-07-04T05:23:13;15.40;99.90
22288;DHT22;11312;51.464;6.968;2022-07-04T05:25:39;15.50;99.90
22288;DHT22;11312;51.464;6.968;2022-07-04T05:28:04;15.60;99.90
22288;DHT22;11312;51.464;6.968;2022-07-04T05:30:31;15.70;99.90
22288;DHT22;11312;51.464;6.968;2022-07-04T05:32:56;15.80;99.90
22288;DHT22;11312;51.464;6.968;2022-07-04T05:35:24;16.00;99.90
22288;DHT22;11312;51.464;6.968;2022-07-04T05:37:49;16.10;99.90
22288;DHT22;11312;51.464;6.968;2022-07-04T05:40:15;16.20;99.90
22288;DHT22;11312;51.464;6.968;2022-07-04T05:42:41;16.40;99.90
22288;DHT22;11312;51.464;6.968;2022-07-04T05:45:07;16.60;99.90
22288;DHT22;11312;51.464;6.968;2022-07-04T05:47:32;16.90;99.90
22288;DHT22;11312;51.464;6.968;2022-07-04T05:49:58;17.00;99.90
22288;DHT22;11312;51.464;6.968;2022-07-04T05:52:25;17.40;99.90
22288;DHT22;11312;51.464;6.968;2022-07-04T05:54:51;17.80;99.90
22288;DHT22;11312;51.464;6.968;2022-07-04T05:57:16;18.00;99.90
22288;DHT22;11312;51.464;6.968;2022-07-04T05:59:42;18.00;99.90
22288;DHT22;11312;51.464;6.968;2022-07-04T06:02:09;18.10;99.90
22288;DHT22;11312;51.464;6.968;2022-07-04T06:04:35;18.20;99.90
22288;DHT22;11312;51.464;6.968;2022-07-04T06:07:01;18.50;99.90
22288;DHT22;11312;51.464;6.968;2022-07-04T06:09:26;18.70;1.00
22288;DHT22;11312;51.464;6.968;2022-07-04T06:11:52;18.90;99.90
22288;DHT22;11312;51.464;6.968;2022-07-04T06:14:17;19.20;99.90
22288;DHT22;11312;51.464;6.968;2022-07-04T06:16:43;19.20;99.90
22288;DHT22;11312;51.464;6.968;2022-07-04T06:19:09;19.20;99.90
22288;DHT22;11312;51.464;6.968;2022-07-04T06:21:34;19.10;99.90
22288;DHT22;11312;51.464;6.968;2022-07-04T06:24:00;19.10;99.90
22288;DHT22;11312;51.464;6.968;2022-07-04T06:26:27;19.10;99.90
22288;DHT22;11312;51.464;6.968;2022-07-04T06:28:53;19.20;99.90
22288;DHT22;11312;51.464;6.968;2022-07-04T06:31:19;19.20;99.90
22288;DHT22;11312;51.464;6.968;2022-07-04T06:33:44;19.80;99.90
22288;DHT22;11312;51.464;6.968;2022-07-04T06:36:29;19.20;99.90
22288;DHT22;11312;51.464;6.968;2022-07-04T06:38:54;19.80;99.90
22288;DHT22;11312;51.464;6.968;2022-07-04T06:41:20;19.90;99.90
22288;DHT22;11312;51.464;6.968;2022-07-04T06:43:45;20.30;99.90
22288;DHT22;11312;51.464;6.968;2022-07-04T06:46:11;19.50;99.90
22288;DHT22;11312;51.464;6.968;2022-07-04T06:48:37;19.90;99.90
22288;DHT22;11312;51.464;6.968;2022-07-04T06:51:03;19.90;99.90
22288;DHT22;11312;51.464;6.968;2022-07-04T06:53:28;19.90;99.90
22288;DHT22;11312;51.464;6.968;2022-07-04T06:55:55;20.10;99.90
22288;DHT22;11312;51.464;6.968;2022-07-04T06:58:21;20.90;99.90
22288;DHT22;11312;51.464;6.968;2022-07-04T07:00:46;21.30;99.90
22288;DHT22;11312;51.464;6.968;2022-07-04T07:03:12;20.70;99.90
22288;DHT22;11312;51.464;6.968;2022-07-04T07:05:37;20.70;99.90
22288;DHT22;11312;51.464;6.968;2022-07-04T07:08:04;21.40;99.90
22288;DHT22;11312;51.464;6.968;2022-07-04T07:10:30;21.10;99.90
22288;DHT22;11312;51.464;6.968;2022-07-04T07:12:58;21.40;99.90
22288;DHT22;11312;51.464;6.968;2022-07-04T07:15:24;21.70;99.90
22288;DHT22;11312;51.464;6.968;2022-07-04T07:17:49;22.10;99.90
22288;DHT22;11312;51.464;6.968;2022-07-04T07:20:15;22.30;99.90
22288;DHT22;11312;51.464;6.968;2022-07-04T07:22:41;23.10;99.90
22288;DHT22;11312;51.464;6.968;2022-07-04T07:25:09;21.50;99.90
22288;DHT22;11312;51.464;6.968;2022-07-04T07:27:35;22.20;99.90
22288;DHT22;11312;51.464;6.968;2022-07-04T07:30:01;21.50;99.90
22288;DHT22;11312;51.464;6.968;2022-07-04T07:32:27;21.60;99.90
22288;DHT22;11312;51.464;6.968;2022-07-04T07:34:53;22.10;99.90
22288;DHT22;11312;51.464;6.968;2022-07-04T07:37:18;22.00;99.90
22288;DHT22;11312;51.464;6.968;2022-07-04T07:39:45;22.50;99.90
22288;DHT22;11312;51.464;6.968;2022-07-04T07:42:11;22.10;99.90
22288;DHT22;11312;51.464;6.968;2022-07-04T07:44:37;22.20;99.90
22288;DHT22;11312;51.464;6.968;2022-07-04T07:47:02;22.90;99.90
22288;DHT22;11312;51.464;6.968;2022-07-04T07:49:28;23.50;99.90
22288;DHT22;11312;51.464;6.968;2022-07-04T07:51:54;24.10;99.90
22288;DHT22;11312;51.464;6.968;2022-07-04T07:54:21;24.00;99.90
22288;DHT22;11312;51.464;6.968;2022-07-04T07:56:47;24.10;99.90
22288;DHT22;11312;51.464;6.968;2022-07-04T07:59:13;24.70;99.90
22288;DHT22;11312;51.464;6.968;2022-07-04T08:01:38;24.60;99.90
22288;DHT22;11312;51.464;6.968;2022-07-04T08:04:04;23.10;99.90
22288;DHT22;11312;51.464;6.968;2022-07-04T08:06:49;23.10;99.90
22288;DHT22;11312;51.464;6.968;2022-07-04T08:09:15;22.70;99.90
22288;DHT22;11312;51.464;6.968;2022-07-04T08:11:41;22.00;99.90
22288;DHT22;11312;51.464;6.968;2022-07-04T08:14:07;22.00;99.90
22288;DHT22;11312;51.464;6.968;2022-07-04T08:16:33;22.30;99.90
22288;DHT22;11312;51.464;6.968;2022-07-04T08:18:59;22.60;99.90
22288;DHT22;11312;51.464;6.968;2022-07-04T08:21:25;23.30;99.90
22288;DHT22;11312;51.464;6.968;2022-07-04T08:23:50;23.30;99.90
22288;DHT22;11312;51.464;6.968;2022-07-04T08:26:16;23.50;99.90
22288;DHT22;11312;51.464;6.968;2022-07-04T08:28:41;22.90;99.90
22288;DHT22;11312;51.464;6.968;2022-07-04T08:31:07;23.00;99.90
22288;DHT22;11312;51.464;6.968;2022-07-04T08:33:33;23.00;99.90
22288;DHT22;11312;51.464;6.968;2022-07-04T08:35:59;22.50;99.90
22288;DHT22;11312;51.464;6.968;2022-07-04T08:38:24;23.10;99.90
22288;DHT22;11312;51.464;6.968;2022-07-04T08:40:57;23.50;99.90
22288;DHT22;11312;51.464;6.968;2022-07-04T08:43:24;23.80;99.90
22288;DHT22;11312;51.464;6.968;2022-07-04T08:45:53;23.70;99.90
22288;DHT22;11312;51.464;6.968;2022-07-04T08:48:24;24.00;99.90
22288;DHT22;11312;51.464;6.968;2022-07-04T08:50:57;23.60;99.90
22288;DHT22;11312;51.464;6.968;2022-07-04T08:53:29;22.90;99.90
22288;DHT22;11312;51.464;6.968;2022-07-04T08:55:56;23.20;99.90
22288;DHT22;11312;51.464;6.968;2022-07-04T08:58:44;24.00;99.90
22288;DHT22;11312;51.464;6.968;2022-07-04T09:01:11;23.90;99.90
22288;DHT22;11312;51.464;6.968;2022-07-04T09:03:42;24.10;99.90
22288;DHT22;11312;51.464;6.968;2022-07-04T09:06:09;24.50;99.90
22288;DHT22;11312;51.464;6.968;2022-07-04T09:08:34;24.70;99.90
22288;DHT22;11312;51.464;6.968;2022-07-04T09:11:02;24.40;99.90
22288;DHT22;11312;51.464;6.968;2022-07-04T09:13:28;24.80;99.90
22288;DHT22;11312;51.464;6.968;2022-07-04T09:15:54;25.00;99.90
22288;DHT22;11312;51.464;6.968;2022-07-04T09:18:31;25.00;99.90
22288;DHT22;11312;51.464;6.968;2022-07-04T09:21:03;25.40;99.90
22288;DHT22;11312;51.464;6.968;2022-07-04T09:23:31;25.40;99.90
22288;DHT22;11312;51.464;6.968;2022-07-04T09:26:10;24.60;99.90
22288;DHT22;11312;51.464;6.968;2022-07-04T09:28:37;25.20;99.90
22288;DHT22;11312;51.464;6.968;2022-07-04T09:31:19;25.00;99.90
22288;DHT22;11312;51.464;6.968;2022-07-04T09:33:54;25.30;99.90
22288;DHT22;11312;51.464;6.968;2022-07-04T09:36:28;25.40;99.90
22288;DHT22;11312;51.464;6.968;2022-07-04T09:39:11;25.80;99.90
22288;DHT22;11312;51.464;6.968;2022-07-04T09:44:20;26.10;99.90
22288;DHT22;11312;51.464;6.968;2022-07-04T09:46:46;25.70;99.90
22288;DHT22;11312;51.464;6.968;2022-07-04T09:49:11;26.30;99.90
22288;DHT22;11312;51.464;6.968;2022-07-04T09:51:41;26.70;99.90
22288;DHT22;11312;51.464;6.968;2022-07-04T09:54:24;26.10;99.90
22288;DHT22;11312;51.464;6.968;2022-07-04T09:57:00;25.80;99.90
22288;DHT22;11312;51.464;6.968;2022-07-04T09:59:27;26.10;99.90
22288;DHT22;11312;51.464;6.968;2022-07-04T10:02:10;26.10;99.90
22288;DHT22;11312;51.464;6.968;2022-07-04T10:04:52;25.80;99.90
22288;DHT22;11312;51.464;6.968;2022-07-04T10:07:34;26.30;99.90
22288;DHT22;11312;51.464;6.968;2022-07-04T10:10:27;26.90;99.90
22288;DHT22;11312;51.464;6.968;2022-07-04T10:12:56;27.00;99.90
22288;DHT22;11312;51.464;6.968;2022-07-04T10:15:22;26.40;98.50
22288;DHT22;11312;51.464;6.968;2022-07-04T10:17:48;26.90;99.90
22288;DHT22;11312;51.464;6.968;2022-07-04T10:20:14;27.00;99.90
22288;DHT22;11312;51.464;6.968;2022-07-04T10:22:40;27.40;99.90
22288;DHT22;11312;51.464;6.968;2022-07-04T10:25:07;27.60;99.90
22288;DHT22;11312;51.464;6.968;2022-07-04T10:27:34;27.10;99.90
22288;DHT22;11312;51.464;6.968;2022-07-04T10:30:00;27.40;99.90
22288;DHT22;11312;51.464;6.968;2022-07-04T10:32:27;27.70;99.90
22288;DHT22;11312;51.464;6.968;2022-07-04T10:34:54;27.00;99.90
22288;DHT22;11312;51.464;6.968;2022-07-04T10:37:19;27.40;99.70
22288;DHT22;11312;51.464;6.968;2022-07-04T10:39:47;28.00;99.90
22288;DHT22;11312;51.464;6.968;2022-07-04T10:42:25;27.70;99.20
22288;DHT22;11312;51.464;6.968;2022-07-04T10:44:51;26.80;99.90
22288;DHT22;11312;51.464;6.968;2022-07-04T10:47:24;26.20;97.60
22288;DHT22;11312;51.464;6.968;2022-07-04T10:49:51;25.60;99.90
22288;DHT22;11312;51.464;6.968;2022-07-04T10:52:17;26.50;99.90
22288;DHT22;11312;51.464;6.968;2022-07-04T10:54:44;27.00;99.90
22288;DHT22;11312;51.464;6.968;2022-07-04T10:57:21;27.70;99.90
22288;DHT22;11312;51.464;6.968;2022-07-04T11:02:35;26.40;99.90
22288;DHT22;11312;51.464;6.968;2022-07-04T11:17:58;28.40;99.90
22288;DHT22;11312;51.464;6.968;2022-07-04T11:20:26;27.40;99.90
22288;DHT22;11312;51.464;6.968;2022-07-04T11:22:53;26.60;99.90
22288;DHT22;11312;51.464;6.968;2022-07-04T11:25:18;26.60;99.90
22288;DHT22;11312;51.464;6.968;2022-07-04T11:27:44;27.80;99.90
22288;DHT22;11312;51.464;6.968;2022-07-04T11:30:10;28.60;99.90
22288;DHT22;11312;51.464;6.968;2022-07-04T11:32:37;27.90;98.70
22288;DHT22;11312;51.464;6.968;2022-07-04T11:35:05;28.00;99.90
22288;DHT22;11312;51.464;6.968;2022-07-04T11:37:31;29.10;97.60
22288;DHT22;11312;51.464;6.968;2022-07-04T11:39:57;28.80;93.20
22288;DHT22;11312;51.464;6.968;2022-07-04T11:43:04;29.30;93.00
22288;DHT22;11312;51.464;6.968;2022-07-04T11:45:49;29.20;94.80
22288;DHT22;11312;51.464;6.968;2022-07-04T11:48:25;28.70;98.20
22288;DHT22;11312;51.464;6.968;2022-07-04T11:50:51;29.50;90.50
22288;DHT22;11312;51.464;6.968;2022-07-04T11:53:17;29.90;95.50
22288;DHT22;11312;51.464;6.968;2022-07-04T11:55:54;30.30;93.70
22288;DHT22;11312;51.464;6.968;2022-07-04T11:58:21;29.60;90.10
22288;DHT22;11312;51.464;6.968;2022-07-04T12:00:47;29.40;93.90
22288;DHT22;11312;51.464;6.968;2022-07-04T12:03:13;29.60;99.90
22288;DHT22;11312;51.464;6.968;2022-07-04T12:05:39;30.00;87.40
22288;DHT22;11312;51.464;6.968;2022-07-04T12:08:05;30.20;95.00
22288;DHT22;11312;51.464;6.968;2022-07-04T12:10:33;29.80;99.90
22288;DHT22;11312;51.464;6.968;2022-07-04T12:13:01;29.50;96.00
22288;DHT22;11312;51.464;6.968;2022-07-04T12:15:43;28.70;91.00
22288;DHT22;11312;51.464;6.968;2022-07-04T12:20:44;29.40;86.60
22288;DHT22;11312;51.464;6.968;2022-07-04T12:23:10;27.90;90.80
22288;DHT22;11312;51.464;6.968;2022-07-04T12:25:37;28.70;94.20
22288;DHT22;11312;51.464;6.968;2022-07-04T12:28:16;28.30;92.90
22288;DHT22;11312;51.464;6.968;2022-07-04T12:33:19;29.30;92.10
22288;DHT22;11312;51.464;6.968;2022-07-04T12:35:50;29.90;86.30
22288;DHT22;11312;51.464;6.968;2022-07-04T12:38:21;28.70;80.10
22288;DHT22;11312;51.464;6.968;2022-07-04T12:43:48;29.80;89.40
22288;DHT22;11312;51.464;6.968;2022-07-04T12:48:50;28.70;99.90
22288;DHT22;11312;51.464;6.968;2022-07-04T12:51:31;30.20;94.60
22288;DHT22;11312;51.464;6.968;2022-07-04T12:53:58;30.10;77.50
22288;DHT22;11312;51.464;6.968;2022-07-04T12:59:09;30.70;88.30
22288;DHT22;11312;51.464;6.968;2022-07-04T13:01:35;30.40;82.70
22288;DHT22;11312;51.464;6.968;2022-07-04T13:04:02;30.10;79.40
22288;DHT22;11312;51.464;6.968;2022-07-04T13:06:28;30.40;93.50
22288;DHT22;11312;51.464;6.968;2022-07-04T13:08:54;30.70;93.80
22288;DHT22;11312;51.464;6.968;2022-07-04T13:11:20;30.90;90.40
22288;DHT22;11312;51.464;6.968;2022-07-04T13:14:05;31.20;85.00
22288;DHT22;11312;51.464;6.968;2022-07-04T13:16:31;30.80;77.90
22288;DHT22;11312;51.464;6.968;2022-07-04T13:18:56;30.50;84.20
22288;DHT22;11312;51.464;6.968;2022-07-04T13:21:23;30.70;76.10
22288;DHT22;11312;51.464;6.968;2022-07-04T13:23:48;31.20;83.90
22288;DHT22;11312;51.464;6.968;2022-07-04T13:26:14;31.00;77.90
22288;DHT22;11312;51.464;6.968;2022-07-04T13:28:40;31.10;76.10
22288;DHT22;11312;51.464;6.968;2022-07-04T13:31:06;31.10;78.30
22288;DHT22;11312;51.464;6.968;2022-07-04T13:33:32;30.80;74.20
22288;DHT22;11312;51.464;6.968;2022-07-04T13:35:58;30.80;79.10
22288;DHT22;11312;51.464;6.968;2022-07-04T13:38:24;31.00;76.40
22288;DHT22;11312;51.464;6.968;2022-07-04T13:40:50;30.90;76.00
22288;DHT22;11312;51.464;6.968;2022-07-04T13:43:16;30.60;78.90
22288;DHT22;11312;51.464;6.968;2022-07-04T13:45:42;28.90;87.70
22288;DHT22;11312;51.464;6.968;2022-07-04T13:48:10;27.70;86.30
22288;DHT22;11312;51.464;6.968;2022-07-04T13:50:36;27.00;82.80
22288;DHT22;11312;51.464;6.968;2022-07-04T13:53:04;27.10;85.70
22288;DHT22;11312;51.464;6.968;2022-07-04T13:55:30;28.40;80.30
22288;DHT22;11312;51.464;6.968;2022-07-04T13:57:56;29.20;75.80
22288;DHT22;11312;51.464;6.968;2022-07-04T14:00:21;29.20;76.00
22288;DHT22;11312;51.464;6.968;2022-07-04T14:02:47;30.00;79.70
22288;DHT22;11312;51.464;6.968;2022-07-04T14:05:13;30.70;89.00
22288;DHT22;11312;51.464;6.968;2022-07-04T14:07:39;29.50;80.40
22288;DHT22;11312;51.464;6.968;2022-07-04T14:10:05;28.20;84.70
22288;DHT22;11312;51.464;6.968;2022-07-04T14:12:30;27.50;84.10
22288;DHT22;11312;51.464;6.968;2022-07-04T14:14:56;28.50;87.80
22288;DHT22;11312;51.464;6.968;2022-07-04T14:17:22;29.30;83.90
22288;DHT22;11312;51.464;6.968;2022-07-04T14:19:47;30.10;82.80
22288;DHT22;11312;51.464;6.968;2022-07-04T14:22:13;29.00;80.30
22288;DHT22;11312;51.464;6.968;2022-07-04T14:24:39;28.90;82.30
22288;DHT22;11312;51.464;6.968;2022-07-04T14:27:04;29.10;80.00
22288;DHT22;11312;51.464;6.968;2022-07-04T14:29:30;29.70;81.20
22288;DHT22;11312;51.464;6.968;2022-07-04T14:31:56;30.10;81.20
22288;DHT22;11312;51.464;6.968;2022-07-04T14:34:22;30.20;81.40
22288;DHT22;11312;51.464;6.968;2022-07-04T14:36:47;30.00;78.20
22288;DHT22;11312;51.464;6.968;2022-07-04T14:39:13;29.90;76.00
22288;DHT22;11312;51.464;6.968;2022-07-04T14:41:39;29.40;76.60
22288;DHT22;11312;51.464;6.968;2022-07-04T14:44:04;28.60;83.50
22288;DHT22;11312;51.464;6.968;2022-07-04T14:46:30;28.60;86.90
22288;DHT22;11312;51.464;6.968;2022-07-04T14:48:56;28.40;83.60
22288;DHT22;11312;51.464;6.968;2022-07-04T14:51:23;28.80;80.00
22288;DHT22;11312;51.464;6.968;2022-07-04T14:53:50;28.40;83.00
22288;DHT22;11312;51.464;6.968;2022-07-04T14:56:16;27.60;76.10
22288;DHT22;11312;51.464;6.968;2022-07-04T14:58:42;28.70;83.10
22288;DHT22;11312;51.464;6.968;2022-07-04T15:01:08;28.70;74.40
22288;DHT22;11312;51.464;6.968;2022-07-04T15:03:33;27.70;76.20
22288;DHT22;11312;51.464;6.968;2022-07-04T15:05:59;27.70;84.60
22288;DHT22;11312;51.464;6.968;2022-07-04T15:08:25;27.40;85.00
22288;DHT22;11312;51.464;6.968;2022-07-04T15:10:50;26.40;84.70
22288;DHT22;11312;51.464;6.968;2022-07-04T15:13:16;26.00;87.40
22288;DHT22;11312;51.464;6.968;2022-07-04T15:15:42;26.30;91.00
22288;DHT22;11312;51.464;6.968;2022-07-04T15:18:07;27.10;90.20
22288;DHT22;11312;51.464;6.968;2022-07-04T15:20:33;27.50;83.10
22288;DHT22;11312;51.464;6.968;2022-07-04T15:23:17;27.50;89.40
22288;DHT22;11312;51.464;6.968;2022-07-04T15:26:01;27.30;83.80
22288;DHT22;11312;51.464;6.968;2022-07-04T15:28:27;27.50;83.60
22288;DHT22;11312;51.464;6.968;2022-07-04T15:30:53;26.50;84.60
22288;DHT22;11312;51.464;6.968;2022-07-04T15:33:19;26.20;84.20
22288;DHT22;11312;51.464;6.968;2022-07-04T15:35:45;25.90;90.20
22288;DHT22;11312;51.464;6.968;2022-07-04T15:38:11;26.20;91.30
22288;DHT22;11312;51.464;6.968;2022-07-04T15:40:40;25.90;91.20
22288;DHT22;11312;51.464;6.968;2022-07-04T15:43:06;25.80;96.70
22288;DHT22;11312;51.464;6.968;2022-07-04T15:45:32;25.70;91.80
22288;DHT22;11312;51.464;6.968;2022-07-04T15:47:58;25.90;92.80
22288;DHT22;11312;51.464;6.968;2022-07-04T15:50:23;25.70;93.40
22288;DHT22;11312;51.464;6.968;2022-07-04T15:52:49;25.60;92.50
22288;DHT22;11312;51.464;6.968;2022-07-04T15:55:15;25.80;93.00
22288;DHT22;11312;51.464;6.968;2022-07-04T15:57:41;25.70;90.80
22288;DHT22;11312;51.464;6.968;2022-07-04T16:00:07;25.70;90.60
22288;DHT22;11312;51.464;6.968;2022-07-04T16:02:32;25.40;90.30